Terminal Aerodrome Forecast
Issued by NWS

Home | Current Version | Previous Version | Text Only | Print | Product List | Glossary Off
Versions: 1 2 3 4 5 6 7 8 9 10 11 12 13 14 15 16 17

000
FTUS44 KTSA 050532
TAFRVS
TAF
KRVS 050532Z 0506/0606 00000KT 6SM BR SCT250
      TEMPO 0506/0509 3SM BR SCT003
     FM050900 00000KT 2SM BR BKN003
     FM051400 VRB02KT 5SM BR BKN200
     FM051800 15006KT P6SM SCT040 BKN120
     FM052200 16009KT P6SM SCT030 BKN150=

USA.gov is the U.S. government's official web portal to all federal, state and local government web resources and services.